createdAt,value
2018-01-11T00:00:43.130Z,949.56
2018-01-11T00:01:43.110Z,949.58
2018-01-11T00:02:43.093Z,949.62
2018-01-11T00:03:43.075Z,949.6
2018-01-11T00:04:43.056Z,949.63
2018-01-11T00:05:43.038Z,949.62
2018-01-11T00:06:43.019Z,949.61
2018-01-11T00:07:43.007Z,949.61
2018-01-11T00:08:42.982Z,949.59
2018-01-11T00:09:42.964Z,949.58
2018-01-11T00:10:42.945Z,949.62
2018-01-11T00:11:42.926Z,949.62
2018-01-11T00:12:42.910Z,949.62
2018-01-11T00:13:42.889Z,949.6
2018-01-11T00:14:42.877Z,949.63
2018-01-11T00:15:42.852Z,949.62
2018-01-11T00:16:42.836Z,949.6
2018-01-11T00:17:42.819Z,949.63
2018-01-11T00:18:42.797Z,949.61
2018-01-11T00:19:42.781Z,949.63
2018-01-11T00:20:42.763Z,949.64
2018-01-11T00:21:42.744Z,949.61
2018-01-11T00:22:42.724Z,949.64
2018-01-11T00:23:42.707Z,949.67
2018-01-11T00:24:42.689Z,949.66
2018-01-11T00:25:42.670Z,949.65
2018-01-11T00:26:42.651Z,949.71
2018-01-11T00:27:42.634Z,949.67
2018-01-11T00:28:42.616Z,949.72
2018-01-11T00:29:42.596Z,949.73
2018-01-11T00:30:42.578Z,949.76
2018-01-11T00:31:42.560Z,949.78
2018-01-11T00:32:42.540Z,949.74
2018-01-11T00:33:42.522Z,949.72
2018-01-11T00:34:42.506Z,949.71
2018-01-11T00:35:42.487Z,949.73
2018-01-11T00:36:42.466Z,949.71
2018-01-11T00:37:42.448Z,949.72
2018-01-11T00:38:42.430Z,949.74
2018-01-11T00:39:42.412Z,949.76
2018-01-11T00:40:42.399Z,949.75
2018-01-11T00:41:42.376Z,949.79
2018-01-11T00:42:42.356Z,949.75
2018-01-11T00:43:42.339Z,949.72
2018-01-11T00:44:42.320Z,949.77
2018-01-11T00:45:42.301Z,949.74
2018-01-11T00:46:42.283Z,949.82
2018-01-11T00:47:42.263Z,949.81
2018-01-11T00:48:42.244Z,949.81
2018-01-11T00:49:42.228Z,949.79
2018-01-11T00:50:42.210Z,949.79
2018-01-11T00:51:42.190Z,949.8
2018-01-11T00:52:42.173Z,949.8
2018-01-11T00:53:42.156Z,949.78
2018-01-11T00:54:42.137Z,949.73
2018-01-11T00:55:42.117Z,949.75
2018-01-11T00:56:42.100Z,949.73
2018-01-11T00:57:42.082Z,949.79
2018-01-11T00:58:42.062Z,949.76
2018-01-11T00:59:42.043Z,949.73
2018-01-11T01:00:42.027Z,949.79
2018-01-11T01:01:42.008Z,949.78
2018-01-11T01:02:41.994Z,949.8
2018-01-11T01:03:41.971Z,949.81
2018-01-11T01:04:41.952Z,949.81
2018-01-11T01:05:41.934Z,949.79
2018-01-11T01:06:41.921Z,949.79
2018-01-11T01:07:41.897Z,949.85
2018-01-11T01:08:41.878Z,949.83
2018-01-11T01:09:41.859Z,949.93
2018-01-11T01:10:41.852Z,949.89
2018-01-11T01:11:41.823Z,949.94
2018-01-11T01:12:41.805Z,949.94
2018-01-11T01:13:41.786Z,949.98
2018-01-11T01:14:41.766Z,949.95
2018-01-11T01:15:41.748Z,949.97
2018-01-11T01:16:41.728Z,949.93
2018-01-11T01:17:41.712Z,950.03
2018-01-11T01:18:41.710Z,949.98
2018-01-11T01:19:41.673Z,949.94
2018-01-11T01:20:41.654Z,949.96
2018-01-11T01:21:41.637Z,949.95
2018-01-11T01:22:41.620Z,949.97
2018-01-11T01:23:41.600Z,949.99
2018-01-11T01:24:41.582Z,950.02
2018-01-11T01:25:41.562Z,950.02
2018-01-11T01:26:41.545Z,950.04
2018-01-11T01:27:41.525Z,949.99
2018-01-11T01:28:41.506Z,950.03
2018-01-11T01:29:41.488Z,950.03
2018-01-11T01:30:41.470Z,950.05
2018-01-11T01:31:41.467Z,950.04
2018-01-11T01:32:41.432Z,950.02
2018-01-11T01:33:41.416Z,950.01
2018-01-11T01:34:41.397Z,950
2018-01-11T01:35:41.378Z,950.04
2018-01-11T01:36:41.359Z,950.01
2018-01-11T01:37:41.342Z,950.02
2018-01-11T01:38:41.321Z,949.99
2018-01-11T01:39:41.302Z,950.01
2018-01-11T01:40:41.284Z,949.99
2018-01-11T01:41:41.266Z,949.97
2018-01-11T01:42:41.246Z,949.97
2018-01-11T01:43:41.228Z,950
2018-01-11T01:44:41.226Z,949.97
2018-01-11T01:45:41.192Z,949.97
2018-01-11T01:46:41.174Z,949.96
2018-01-11T01:47:41.153Z,949.96
2018-01-11T01:48:41.136Z,950
2018-01-11T01:49:41.116Z,949.96
2018-01-11T01:50:41.098Z,950
2018-01-11T01:51:41.079Z,949.99
2018-01-11T01:52:41.062Z,949.97
2018-01-11T01:53:41.041Z,950.02
2018-01-11T01:54:41.025Z,950
2018-01-11T01:55:41.006Z,950.02
2018-01-11T01:56:40.988Z,950
2018-01-11T01:57:40.969Z,950.04
2018-01-11T01:58:40.950Z,950.03
2018-01-11T01:59:40.930Z,949.99
2018-01-11T02:00:40.912Z,950.01
2018-01-11T02:01:40.892Z,949.98
2018-01-11T02:02:40.877Z,949.98
2018-01-11T02:03:40.862Z,949.98
2018-01-11T02:04:40.838Z,949.94
2018-01-11T02:05:40.824Z,949.93
2018-01-11T02:06:40.807Z,949.96
2018-01-11T02:07:40.783Z,949.98
2018-01-11T02:08:40.765Z,949.92
2018-01-11T02:09:40.747Z,949.93
2018-01-11T02:10:40.728Z,949.91
2018-01-11T02:11:40.708Z,949.88
2018-01-11T02:12:40.690Z,949.87
2018-01-11T02:13:40.672Z,949.86
2018-01-11T02:14:40.653Z,949.85
2018-01-11T02:15:40.634Z,949.86
2018-01-11T02:16:40.615Z,949.86
2018-01-11T02:17:40.598Z,949.89
2018-01-11T02:18:40.580Z,949.88
2018-01-11T02:19:40.559Z,949.87
2018-01-11T02:20:40.540Z,949.89
2018-01-11T02:21:40.524Z,949.89
2018-01-11T02:22:40.503Z,949.88
2018-01-11T02:23:40.488Z,949.92
2018-01-11T02:24:40.470Z,949.89
2018-01-11T02:25:40.448Z,949.9
2018-01-11T02:26:40.430Z,949.95
2018-01-11T02:27:40.412Z,949.94
2018-01-11T02:28:40.395Z,949.91
2018-01-11T02:29:40.380Z,949.9
2018-01-11T02:30:40.357Z,949.94
2018-01-11T02:31:40.342Z,949.93
2018-01-11T02:32:40.336Z,949.94
2018-01-11T02:33:40.303Z,949.97
2018-01-11T02:34:40.302Z,949.95
2018-01-11T02:35:40.267Z,949.96
2018-01-11T02:36:40.247Z,949.99
2018-01-11T02:37:40.229Z,949.97
2018-01-11T02:38:40.212Z,949.99
2018-01-11T02:39:40.192Z,950.03
2018-01-11T02:40:40.175Z,950.02
2018-01-11T02:41:40.156Z,950.04
2018-01-11T02:42:40.146Z,950.03
2018-01-11T02:43:40.120Z,950.01
2018-01-11T02:44:40.105Z,950.02
2018-01-11T02:45:40.080Z,949.99
2018-01-11T02:46:40.062Z,950.01
2018-01-11T02:47:40.045Z,950.04
2018-01-11T02:48:40.027Z,950.07
2018-01-11T02:49:40.008Z,950.08
2018-01-11T02:50:39.988Z,950.09
2018-01-11T02:51:39.969Z,950.11
2018-01-11T02:52:39.950Z,950.09
2018-01-11T02:53:39.934Z,950.08
2018-01-11T02:54:39.926Z,950.06
2018-01-11T02:55:40.110Z,950.08
2018-01-11T02:56:39.915Z,950.08
2018-01-11T02:57:39.859Z,950.07
2018-01-11T02:58:39.845Z,950.05
2018-01-11T02:59:39.838Z,950.05
2018-01-11T03:00:39.804Z,950.08
2018-01-11T03:01:39.788Z,950.16
2018-01-11T03:02:39.767Z,950.1
2018-01-11T03:03:39.748Z,950.12
2018-01-11T03:04:40.432Z,950.15
2018-01-11T03:05:39.712Z,950.19
2018-01-11T03:06:39.693Z,950.18
2018-01-11T03:07:39.681Z,950.16
2018-01-11T03:08:39.660Z,950.17
2018-01-11T03:09:39.637Z,950.14
2018-01-11T03:10:39.619Z,950.1
2018-01-11T03:11:39.601Z,950.12
2018-01-11T03:12:39.583Z,950.16
2018-01-11T03:13:39.562Z,950.18
2018-01-11T03:14:39.546Z,950.17
2018-01-11T03:15:39.526Z,950.2
2018-01-11T03:16:39.508Z,950.2
2018-01-11T03:17:39.490Z,950.2
2018-01-11T03:18:39.485Z,950.23
2018-01-11T03:19:39.451Z,950.2
2018-01-11T03:20:39.463Z,950.2
2018-01-11T03:21:39.414Z,950.23
2018-01-11T03:22:39.422Z,950.16
2018-01-11T03:23:39.378Z,950.17
2018-01-11T03:24:39.357Z,950.17
2018-01-11T03:25:39.342Z,950.16
2018-01-11T03:26:39.336Z,950.16
2018-01-11T03:27:39.304Z,950.17
2018-01-11T03:28:39.296Z,950.14
2018-01-11T03:29:39.267Z,950.17
2018-01-11T03:30:39.249Z,950.17
2018-01-11T03:31:39.232Z,950.14
2018-01-11T03:32:39.211Z,950.15
2018-01-11T03:33:39.191Z,950.16
2018-01-11T03:34:39.175Z,950.12
2018-01-11T03:35:39.155Z,950.13
2018-01-11T03:36:39.181Z,950.15
2018-01-11T03:37:39.116Z,950.12
2018-01-11T03:38:39.101Z,950.14
2018-01-11T03:39:39.080Z,950.19
2018-01-11T03:40:39.072Z,950.16
2018-01-11T03:41:39.042Z,950.17
2018-01-11T03:42:39.025Z,950.13
2018-01-11T03:43:39.005Z,950.16
2018-01-11T03:44:38.989Z,950.21
2018-01-11T03:45:38.970Z,950.21
2018-01-11T03:46:38.953Z,950.18
2018-01-11T03:47:38.931Z,950.14
2018-01-11T03:48:38.913Z,950.21
2018-01-11T03:49:38.897Z,950.23
2018-01-11T03:50:38.875Z,950.25
2018-01-11T03:51:38.857Z,950.24
2018-01-11T03:52:38.839Z,950.27
2018-01-11T03:53:38.833Z,950.29
2018-01-11T03:54:38.805Z,950.29
2018-01-11T03:55:38.781Z,950.28
2018-01-11T03:56:38.774Z,950.31
2018-01-11T03:57:38.744Z,950.28
2018-01-11T03:58:38.727Z,950.28
2018-01-11T03:59:38.707Z,950.3
2018-01-11T04:00:38.690Z,950.28
2018-01-11T04:01:38.669Z,950.29
2018-01-11T04:02:38.652Z,950.3
2018-01-11T04:03:38.632Z,950.28
2018-01-11T04:04:38.614Z,950.32
2018-01-11T04:05:38.595Z,950.27
2018-01-11T04:06:38.578Z,950.33
2018-01-11T04:07:38.560Z,950.3
2018-01-11T04:08:38.540Z,950.32
2018-01-11T04:09:38.522Z,950.34
2018-01-11T04:10:38.503Z,950.34
2018-01-11T04:11:38.486Z,950.33
2018-01-11T04:12:38.479Z,950.33
2018-01-11T04:13:38.448Z,950.29
2018-01-11T04:14:38.447Z,950.29
2018-01-11T04:15:38.411Z,950.31
2018-01-11T04:16:38.389Z,950.31
2018-01-11T04:17:38.371Z,950.3
2018-01-11T04:18:38.356Z,950.29
2018-01-11T04:19:38.333Z,950.33
2018-01-11T04:20:38.317Z,950.31
2018-01-11T04:21:38.300Z,950.32
2018-01-11T04:22:38.302Z,950.33
2018-01-11T04:23:38.258Z,950.29
2018-01-11T04:24:38.240Z,950.31
2018-01-11T04:25:38.223Z,950.32
2018-01-11T04:26:38.213Z,950.29
2018-01-11T04:27:38.184Z,950.32
2018-01-11T04:28:38.168Z,950.35
2018-01-11T04:29:38.148Z,950.35
2018-01-11T04:30:38.130Z,950.35
2018-01-11T04:31:38.111Z,950.35
2018-01-11T04:32:38.092Z,950.35
2018-01-11T04:33:38.075Z,950.33
2018-01-11T04:34:38.056Z,950.34
2018-01-11T04:35:38.036Z,950.34
2018-01-11T04:36:38.017Z,950.33
2018-01-11T04:37:38.016Z,950.31
2018-01-11T04:38:37.988Z,950.35
2018-01-11T04:39:37.963Z,950.3
2018-01-11T04:40:37.947Z,950.29
2018-01-11T04:41:37.940Z,950.36
2018-01-11T04:42:37.909Z,950.3
2018-01-11T04:43:38.090Z,950.3
2018-01-11T04:44:37.870Z,950.35
2018-01-11T04:45:37.850Z,950.33
2018-01-11T04:46:37.830Z,950.38
2018-01-11T04:47:37.827Z,950.37
2018-01-11T04:48:37.791Z,950.34
2018-01-11T04:49:37.781Z,950.36
2018-01-11T04:50:37.756Z,950.32
2018-01-11T04:51:37.738Z,950.3
2018-01-11T04:52:37.717Z,950.33
2018-01-11T04:53:37.699Z,950.29
2018-01-11T04:54:37.681Z,950.26
2018-01-11T04:55:37.661Z,950.34
2018-01-11T04:56:37.641Z,950.32
2018-01-11T04:57:37.625Z,950.36
2018-01-11T04:58:37.605Z,950.35
2018-01-11T04:59:37.603Z,950.34
2018-01-11T05:00:37.568Z,950.31
2018-01-11T05:01:37.550Z,950.39
2018-01-11T05:02:37.652Z,950.35
2018-01-11T05:03:37.511Z,950.34
2018-01-11T05:04:37.493Z,950.35
2018-01-11T05:05:37.474Z,950.36
2018-01-11T05:06:37.455Z,950.34
2018-01-11T05:07:37.437Z,950.36
2018-01-11T05:08:37.420Z,950.36
2018-01-11T05:09:37.401Z,950.37
2018-01-11T05:10:37.396Z,950.39
2018-01-11T05:11:37.362Z,950.36
2018-01-11T05:12:37.344Z,950.36
2018-01-11T05:13:37.324Z,950.37
2018-01-11T05:14:37.318Z,950.32
2018-01-11T05:15:37.286Z,950.3
2018-01-11T05:16:37.267Z,950.36
2018-01-11T05:17:37.247Z,950.28
2018-01-11T05:18:37.252Z,950.37
2018-01-11T05:19:37.211Z,950.37
2018-01-11T05:20:37.193Z,950.37
2018-01-11T05:21:37.173Z,950.42
2018-01-11T05:22:37.153Z,950.4
2018-01-11T05:23:37.135Z,950.37
2018-01-11T05:24:37.131Z,950.35
2018-01-11T05:25:37.098Z,950.35
2018-01-11T05:26:37.079Z,950.32
2018-01-11T05:27:37.059Z,950.36
2018-01-11T05:28:37.041Z,950.35
2018-01-11T05:29:37.022Z,950.39
2018-01-11T05:30:37.006Z,950.35
2018-01-11T05:31:36.984Z,950.33
2018-01-11T05:32:36.966Z,950.37
2018-01-11T05:33:36.947Z,950.35
2018-01-11T05:34:36.928Z,950.35
2018-01-11T05:35:36.910Z,950.34
2018-01-11T05:36:36.890Z,950.32
2018-01-11T05:37:36.872Z,950.35
2018-01-11T05:38:36.851Z,950.39
2018-01-11T05:39:36.834Z,950.32
2018-01-11T05:40:36.827Z,950.38
2018-01-11T05:41:36.797Z,950.37
2018-01-11T05:42:36.777Z,950.39
2018-01-11T05:43:36.764Z,950.37
2018-01-11T05:44:36.740Z,950.38
2018-01-11T05:45:36.722Z,950.38
2018-01-11T05:46:36.704Z,950.36
2018-01-11T05:47:36.684Z,950.38
2018-01-11T05:48:36.671Z,950.37
2018-01-11T05:49:36.646Z,950.37
2018-01-11T05:50:36.625Z,950.35
2018-01-11T05:51:36.609Z,950.42
2018-01-11T05:52:36.589Z,950.4
2018-01-11T05:53:36.570Z,950.41
2018-01-11T05:54:36.550Z,950.41
2018-01-11T05:55:36.533Z,950.43
2018-01-11T05:56:36.514Z,950.38
2018-01-11T05:57:36.496Z,950.46
2018-01-11T05:58:36.475Z,950.46
2018-01-11T05:59:36.456Z,950.46
2018-01-11T06:00:36.438Z,950.45
2018-01-11T06:01:36.420Z,950.47
2018-01-11T06:02:36.399Z,950.49
2018-01-11T06:03:36.385Z,950.5
2018-01-11T06:04:36.363Z,950.47
2018-01-11T06:05:36.343Z,950.49
2018-01-11T06:06:36.324Z,950.51
2018-01-11T06:07:36.308Z,950.57
2018-01-11T06:08:36.287Z,950.56
2018-01-11T06:09:36.268Z,950.58
2018-01-11T06:10:36.249Z,950.54
2018-01-11T06:11:36.230Z,950.61
2018-01-11T06:12:36.210Z,950.62
2018-01-11T06:13:36.192Z,950.61
2018-01-11T06:14:36.174Z,950.66
2018-01-11T06:15:36.153Z,950.68
2018-01-11T06:16:36.135Z,950.68
2018-01-11T06:17:36.115Z,950.7
2018-01-11T06:18:36.097Z,950.71
2018-01-11T06:19:36.080Z,950.71
2018-01-11T06:20:36.058Z,950.7
2018-01-11T06:21:36.042Z,950.74
2018-01-11T06:22:36.021Z,950.71
2018-01-11T06:23:36.002Z,950.71
2018-01-11T06:24:35.984Z,950.7
2018-01-11T06:25:35.962Z,950.71
2018-01-11T06:26:35.946Z,950.68
2018-01-11T06:27:35.926Z,950.69
2018-01-11T06:28:35.922Z,950.74
2018-01-11T06:29:35.888Z,950.72
2018-01-11T06:30:35.870Z,950.72
2018-01-11T06:31:35.848Z,950.72
2018-01-11T06:32:35.830Z,950.74
2018-01-11T06:33:35.812Z,950.8
2018-01-11T06:34:35.794Z,950.76
2018-01-11T06:35:35.772Z,950.77
2018-01-11T06:36:35.762Z,950.76
2018-01-11T06:37:35.738Z,950.79
2018-01-11T06:38:35.716Z,950.81
2018-01-11T06:39:35.698Z,950.82
2018-01-11T06:40:35.685Z,950.84
2018-01-11T06:41:35.661Z,950.83
2018-01-11T06:42:35.640Z,950.83
2018-01-11T06:43:35.621Z,950.79
2018-01-11T06:44:35.604Z,950.84
2018-01-11T06:45:35.582Z,950.84
2018-01-11T06:46:35.586Z,950.85
2018-01-11T06:47:35.545Z,950.82
2018-01-11T06:48:35.527Z,950.87
2018-01-11T06:49:35.508Z,950.9
2018-01-11T06:50:35.488Z,950.89
2018-01-11T06:51:35.469Z,950.87
2018-01-11T06:52:35.450Z,950.92
2018-01-11T06:53:35.431Z,950.92
2018-01-11T06:54:35.413Z,950.91
2018-01-11T06:55:35.393Z,950.98
2018-01-11T06:56:35.374Z,950.97
2018-01-11T06:57:35.355Z,950.98
2018-01-11T06:58:35.339Z,951
2018-01-11T06:59:35.318Z,951
2018-01-11T07:00:35.298Z,951
2018-01-11T07:01:35.281Z,951.04
2018-01-11T07:02:35.276Z,951.04
2018-01-11T07:03:35.241Z,951.01
2018-01-11T07:04:35.222Z,951.04
2018-01-11T07:05:35.204Z,951.08
2018-01-11T07:06:35.198Z,951.05
2018-01-11T07:07:35.164Z,951.05
2018-01-11T07:08:35.146Z,951.07
2018-01-11T07:09:35.127Z,951.09
2018-01-11T07:10:35.107Z,951.12
2018-01-11T07:11:35.089Z,951.13
2018-01-11T07:12:35.071Z,951.19
2018-01-11T07:13:35.051Z,951.15
2018-01-11T07:14:35.031Z,951.2
2018-01-11T07:15:35.015Z,951.17
2018-01-11T07:16:34.993Z,951.16
2018-01-11T07:17:34.974Z,951.18
2018-01-11T07:18:34.955Z,951.16
2018-01-11T07:19:34.937Z,951.18
2018-01-11T07:20:34.917Z,951.16
2018-01-11T07:21:34.899Z,951.19
2018-01-11T07:22:34.880Z,951.19
2018-01-11T07:23:34.861Z,951.19
2018-01-11T07:24:34.843Z,951.17
2018-01-11T07:25:34.824Z,951.15
2018-01-11T07:26:34.808Z,951.15
2018-01-11T07:27:34.785Z,951.2
2018-01-11T07:28:34.766Z,951.2
2018-01-11T07:29:34.747Z,951.2
2018-01-11T07:30:34.728Z,951.21
2018-01-11T07:31:34.709Z,951.2
2018-01-11T07:32:34.690Z,951.22
2018-01-11T07:33:34.675Z,951.3
2018-01-11T07:34:34.653Z,951.24
2018-01-11T07:35:34.654Z,951.26
2018-01-11T07:36:34.614Z,951.25
2018-01-11T07:37:34.598Z,951.27
2018-01-11T07:38:34.578Z,951.31
2018-01-11T07:39:34.558Z,951.26
2018-01-11T07:40:34.537Z,951.28
2018-01-11T07:41:34.535Z,951.35
2018-01-11T07:42:34.501Z,951.29
2018-01-11T07:43:34.484Z,951.33
2018-01-11T07:44:34.462Z,951.33
2018-01-11T07:45:34.445Z,951.41
2018-01-11T07:46:34.426Z,951.39
2018-01-11T07:47:34.406Z,951.36
2018-01-11T07:48:34.390Z,951.42
2018-01-11T07:49:34.370Z,951.36
2018-01-11T07:50:34.352Z,951.41
2018-01-11T07:51:34.536Z,951.41
2018-01-11T07:52:34.312Z,951.37
2018-01-11T07:53:34.294Z,951.38
2018-01-11T07:54:34.276Z,951.34
2018-01-11T07:55:34.264Z,951.39
2018-01-11T07:56:34.238Z,951.33
2018-01-11T07:57:34.219Z,951.38
2018-01-11T07:58:34.201Z,951.38
2018-01-11T07:59:34.183Z,951.36
2018-01-11T08:00:34.163Z,951.39
2018-01-11T08:01:34.144Z,951.43
2018-01-11T08:02:34.124Z,951.45
2018-01-11T08:03:34.107Z,951.46
2018-01-11T08:04:34.089Z,951.44
2018-01-11T08:05:34.071Z,951.47
2018-01-11T08:06:34.053Z,951.48
2018-01-11T08:07:34.033Z,951.48
2018-01-11T08:08:34.014Z,951.5
2018-01-11T08:09:33.996Z,951.54
2018-01-11T08:10:33.984Z,951.52
2018-01-11T08:11:33.963Z,951.57
2018-01-11T08:12:33.942Z,951.5
2018-01-11T08:13:33.923Z,951.54
2018-01-11T08:14:33.905Z,951.58
2018-01-11T08:15:33.886Z,951.54
2018-01-11T08:16:34.092Z,951.55
2018-01-11T08:17:33.848Z,951.58
2018-01-11T08:18:33.831Z,951.58
2018-01-11T08:19:33.814Z,951.59
2018-01-11T08:20:33.801Z,951.6
2018-01-11T08:21:33.778Z,951.62
2018-01-11T08:22:33.759Z,951.64
2018-01-11T08:23:33.741Z,951.66
2018-01-11T08:24:33.722Z,951.64
2018-01-11T08:25:33.727Z,951.67
2018-01-11T08:26:33.686Z,951.66
2018-01-11T08:27:33.670Z,951.68
2018-01-11T08:28:33.650Z,951.68
2018-01-11T08:29:33.633Z,951.73
2018-01-11T08:30:33.615Z,951.72
2018-01-11T08:31:33.594Z,951.75
2018-01-11T08:32:33.579Z,951.79
2018-01-11T08:33:33.565Z,951.82
2018-01-11T08:34:33.543Z,951.77
2018-01-11T08:35:33.526Z,951.78
2018-01-11T08:36:33.508Z,951.75
2018-01-11T08:37:33.491Z,951.79
2018-01-11T08:38:33.490Z,951.77
2018-01-11T08:39:33.454Z,951.74
2018-01-11T08:40:33.437Z,951.76
2018-01-11T08:41:33.422Z,951.74
2018-01-11T08:42:33.404Z,951.66
2018-01-11T08:43:33.383Z,951.66
2018-01-11T08:44:33.368Z,951.69
2018-01-11T08:45:33.350Z,951.72
2018-01-11T08:46:33.331Z,951.74
2018-01-11T08:47:33.320Z,951.7
2018-01-11T08:48:33.297Z,951.74
2018-01-11T08:49:33.281Z,951.74
2018-01-11T08:50:33.265Z,951.72
2018-01-11T08:51:33.246Z,951.74
2018-01-11T08:52:33.231Z,951.69
2018-01-11T08:53:33.214Z,951.74
2018-01-11T08:54:33.196Z,951.75
2018-01-11T08:55:33.179Z,951.72
2018-01-11T08:56:33.161Z,951.73
2018-01-11T08:57:33.144Z,951.66
2018-01-11T08:58:33.127Z,951.68
2018-01-11T08:59:33.110Z,951.69
2018-01-11T09:00:33.111Z,951.69
2018-01-11T09:01:33.076Z,951.69
2018-01-11T09:02:33.059Z,951.66
2018-01-11T09:03:33.043Z,951.72
2018-01-11T09:04:33.033Z,951.71
2018-01-11T09:05:33.008Z,951.79
2018-01-11T09:06:32.992Z,951.76
2018-01-11T09:07:32.976Z,951.75
2018-01-11T09:08:32.959Z,951.8
2018-01-11T09:09:32.944Z,951.79
2018-01-11T09:10:32.933Z,951.85
2018-01-11T09:11:32.909Z,951.87
2018-01-11T09:12:32.893Z,951.88
2018-01-11T09:13:32.882Z,951.86
2018-01-11T09:14:32.860Z,951.89
2018-01-11T09:15:32.844Z,951.9
2018-01-11T09:16:32.825Z,951.91
2018-01-11T09:17:32.813Z,951.9
2018-01-11T09:18:32.798Z,951.91
2018-01-11T09:19:32.781Z,951.96
2018-01-11T09:20:32.761Z,951.93
2018-01-11T09:21:32.744Z,952
2018-01-11T09:22:32.741Z,952.06
2018-01-11T09:23:32.712Z,952.05
2018-01-11T09:24:32.694Z,952.04
2018-01-11T09:25:32.680Z,952.08
2018-01-11T09:26:32.665Z,952.08
2018-01-11T09:27:32.646Z,952.13
2018-01-11T09:28:32.632Z,952.13
2018-01-11T09:29:32.615Z,952.16
2018-01-11T09:30:32.598Z,952.16
2018-01-11T09:31:32.580Z,952.17
2018-01-11T09:32:32.587Z,952.14
2018-01-11T09:33:32.548Z,952.15
2018-01-11T09:34:32.533Z,952.15
2018-01-11T09:35:32.538Z,952.17
2018-01-11T09:36:32.500Z,952.18
2018-01-11T09:37:32.484Z,952.14
2018-01-11T09:38:32.472Z,952.17
2018-01-11T09:39:32.453Z,952.18
2018-01-11T09:40:32.436Z,952.16
2018-01-11T09:41:32.423Z,952.17
2018-01-11T09:42:32.402Z,952.2
2018-01-11T09:43:32.387Z,952.2
2018-01-11T09:44:32.370Z,952.22
2018-01-11T09:45:32.358Z,952.21
2018-01-11T09:46:32.342Z,952.22
2018-01-11T09:47:32.323Z,952.2
2018-01-11T09:48:32.305Z,952.22
2018-01-11T09:49:32.289Z,952.24
2018-01-11T09:50:32.286Z,952.22
2018-01-11T09:51:32.264Z,952.24
2018-01-11T09:52:32.242Z,952.27
2018-01-11T09:53:32.226Z,952.29
2018-01-11T09:54:32.211Z,952.24
2018-01-11T09:55:32.196Z,952.23
2018-01-11T09:56:32.181Z,952.29
2018-01-11T09:57:32.165Z,952.28
2018-01-11T09:58:32.149Z,952.27
2018-01-11T09:59:32.133Z,952.23
2018-01-11T10:00:32.117Z,952.23
2018-01-11T10:01:32.102Z,952.27
2018-01-11T10:02:32.089Z,952.27
2018-01-11T10:03:32.070Z,952.23
2018-01-11T10:04:32.054Z,952.24
2018-01-11T10:05:32.038Z,952.22
2018-01-11T10:06:32.023Z,952.26
2018-01-11T10:07:32.007Z,952.21
2018-01-11T10:08:31.992Z,952.23
2018-01-11T10:09:31.996Z,952.24
2018-01-11T10:10:31.962Z,952.22
2018-01-11T10:11:31.948Z,952.24
2018-01-11T10:12:31.931Z,952.21
2018-01-11T10:13:31.914Z,952.22
2018-01-11T10:14:31.903Z,952.21
2018-01-11T10:15:31.882Z,952.27
2018-01-11T10:16:31.872Z,952.28
2018-01-11T10:17:32.452Z,952.27
2018-01-11T10:18:31.851Z,952.29
2018-01-11T10:19:31.823Z,952.28
2018-01-11T10:20:31.808Z,952.29
2018-01-11T10:21:31.802Z,952.28
2018-01-11T10:22:31.775Z,952.24
2018-01-11T10:23:31.779Z,952.26
2018-01-11T10:24:31.746Z,952.25
2018-01-11T10:25:31.730Z,952.21
2018-01-11T10:26:31.719Z,952.23
2018-01-11T10:27:31.702Z,952.24
2018-01-11T10:28:31.684Z,952.21
2018-01-11T10:29:31.670Z,952.24
2018-01-11T10:30:31.653Z,952.22
2018-01-11T10:31:31.641Z,952.21
2018-01-11T10:32:31.623Z,952.25
2018-01-11T10:33:31.672Z,952.2
2018-01-11T10:34:31.593Z,952.27
2018-01-11T10:35:31.579Z,952.23
2018-01-11T10:36:31.612Z,952.23
2018-01-11T10:37:31.549Z,952.22
2018-01-11T10:38:31.533Z,952.2
2018-01-11T10:39:31.516Z,952.23
2018-01-11T10:40:31.502Z,952.24
2018-01-11T10:41:31.489Z,952.21
2018-01-11T10:42:31.473Z,952.31
2018-01-11T10:43:31.458Z,952.23
2018-01-11T10:44:31.442Z,952.24
2018-01-11T10:45:31.427Z,952.2
2018-01-11T10:46:31.412Z,952.2
2018-01-11T10:47:31.397Z,952.22
2018-01-11T10:48:31.381Z,952.22
2018-01-11T10:49:31.368Z,952.25
2018-01-11T10:50:31.352Z,952.19
2018-01-11T10:51:31.337Z,952.23
2018-01-11T10:52:31.323Z,952.2
2018-01-11T10:53:31.308Z,952.25
2018-01-11T10:54:31.292Z,952.22
2018-01-11T10:55:31.279Z,952.2
2018-01-11T10:56:31.264Z,952.18
2018-01-11T10:57:31.248Z,952.22
2018-01-11T10:58:31.241Z,952.2
2018-01-11T10:59:31.219Z,952.21
2018-01-11T11:00:31.205Z,952.2
2018-01-11T11:01:31.190Z,952.2
2018-01-11T11:02:31.180Z,952.24
2018-01-11T11:03:31.217Z,952.18
2018-01-11T11:04:31.147Z,952.19
2018-01-11T11:05:31.134Z,952.17
2018-01-11T11:06:31.119Z,952.19
2018-01-11T11:07:31.103Z,952.22
2018-01-11T11:08:31.091Z,952.21
2018-01-11T11:09:31.081Z,952.23
2018-01-11T11:10:31.061Z,952.24
2018-01-11T11:11:31.050Z,952.23
2018-01-11T11:12:31.051Z,952.18
2018-01-11T11:13:31.050Z,952.21
2018-01-11T11:14:31.004Z,952.22
2018-01-11T11:15:30.991Z,952.2
2018-01-11T11:16:30.977Z,952.22
2018-01-11T11:17:30.962Z,952.21
2018-01-11T11:18:30.951Z,952.21
2018-01-11T11:19:30.937Z,952.22
2018-01-11T11:20:30.920Z,952.24
2018-01-11T11:21:30.907Z,952.22
2018-01-11T11:22:30.892Z,952.23
2018-01-11T11:23:30.878Z,952.19
2018-01-11T11:24:30.865Z,952.27
2018-01-11T11:25:30.850Z,952.21
2018-01-11T11:26:30.844Z,952.22
2018-01-11T11:27:30.823Z,952.19
2018-01-11T11:28:30.811Z,952.19
2018-01-11T11:29:30.795Z,952.19
2018-01-11T11:30:30.783Z,952.24
2018-01-11T11:31:30.769Z,952.2
2018-01-11T11:32:30.755Z,952.2
2018-01-11T11:33:43.479Z,952.19
2018-01-11T11:34:30.727Z,952.19
2018-01-11T11:35:30.715Z,952.24
2018-01-11T11:36:30.701Z,952.18
2018-01-11T11:37:30.687Z,952.2
2018-01-11T11:38:30.686Z,952.21
2018-01-11T11:39:30.661Z,952.19
2018-01-11T11:40:30.648Z,952.2
2018-01-11T11:41:30.636Z,952.21
2018-01-11T11:42:30.620Z,952.18
2018-01-11T11:43:30.606Z,952.23
2018-01-11T11:44:30.593Z,952.18
2018-01-11T11:45:30.577Z,952.17
2018-01-11T11:46:30.565Z,952.19
2018-01-11T11:47:30.556Z,952.24
2018-01-11T11:48:30.538Z,952.22
2018-01-11T11:49:30.524Z,952.2
2018-01-11T11:50:30.510Z,952.14
2018-01-11T11:51:30.497Z,952.19
2018-01-11T11:52:30.482Z,952.17
2018-01-11T11:53:30.469Z,952.17
2018-01-11T11:54:30.456Z,952.16
2018-01-11T11:55:30.442Z,952.22
2018-01-11T11:56:30.429Z,952.21
2018-01-11T11:57:30.415Z,952.23
2018-01-11T11:58:30.401Z,952.24
2018-01-11T11:59:30.409Z,952.31
2018-01-11T12:00:30.375Z,952.28
2018-01-11T12:01:30.362Z,952.29
2018-01-11T12:02:30.347Z,952.31
2018-01-11T12:03:30.335Z,952.31
2018-01-11T12:04:30.321Z,952.34
2018-01-11T12:05:30.311Z,952.33
2018-01-11T12:06:30.295Z,952.33
2018-01-11T12:07:30.284Z,952.33
2018-01-11T12:08:30.274Z,952.33
2018-01-11T12:09:30.254Z,952.3
2018-01-11T12:10:30.245Z,952.33
2018-01-11T12:11:30.227Z,952.31
2018-01-11T12:12:30.219Z,952.29
2018-01-11T12:13:30.201Z,952.26
2018-01-11T12:14:30.196Z,952.29
2018-01-11T12:15:30.174Z,952.27
2018-01-11T12:16:30.161Z,952.3
2018-01-11T12:17:30.147Z,952.31
2018-01-11T12:18:30.138Z,952.27
2018-01-11T12:19:30.122Z,952.29
2018-01-11T12:20:30.108Z,952.28
2018-01-11T12:21:30.095Z,952.29
2018-01-11T12:22:30.081Z,952.31
2018-01-11T12:23:30.069Z,952.29
2018-01-11T12:24:30.059Z,952.33
2018-01-11T12:25:30.041Z,952.31
2018-01-11T12:26:30.077Z,952.28
2018-01-11T12:27:30.016Z,952.29
2018-01-11T12:28:30.003Z,952.32
2018-01-11T12:29:29.988Z,952.27
2018-01-11T12:30:29.975Z,952.26
2018-01-11T12:31:29.962Z,952.3